Washington, Mississippi
Current Conditions -  °F | °C
As of 1:55 PM on Saturday 25 Oct 2014 (Local Time) from KHEZ Reporting Station
Clear Clear  
Wind Chill: 77°   Ceiling: Unl
Heat Index: 79°   Visibility: 10mi
Dew Point: 55°   Wind: 6mph
Humidity: 47%   Direction: 330°NNW
Pressure: 30.13"   Gusts: NA
Location:  31.58°N, 91.3°W
Report Text: KHEZ 251855Z AUTO 33005KT 10SM CLR 25/13 A3013 RMK AO1
Loading
Personal Weather Stations






























Interactive Weather Map New forecast layout! Learn more

10-Day Weather Forecast

Advertisements
Track Severe Weather on mobile